Time;durP1;ratioP1;P1;durP2;ratioP2;P2;SDS_P1;SDS_P2;PMS_P1;PMS_P2;Temp;Humidity;BMP_temperature;BMP_pressure;BME280_temperature;BME280_humidity;BME280_pressure;Samples;Min_cycle;Max_cycle;Signal;HPM_P1;HPM_P2
2024/03/22 00:01:43;;;;;;;20.67;18.50;;;;;;;10.31;83.52;101160.88;5032653;28;20259;-77
2024/03/22 00:04:10;;;;;;;21.93;19.90;;;;;;;10.33;83.42;101160.00;5032334;28;20204;-77
2024/03/22 00:06:36;;;;;;;20.30;18.27;;;;;;;10.45;83.68;101156.44;5032948;28;20208;-78
2024/03/22 00:09:02;;;;;;;20.17;18.27;;;;;;;10.43;83.41;101152.97;5032489;28;20229;-78
2024/03/22 00:11:28;;;;;;;22.83;20.57;;;;;;;10.26;83.53;101160.00;5032074;28;20640;-77
2024/03/22 00:13:54;;;;;;;21.80;19.67;;;;;;;10.51;83.45;101151.16;5032404;28;20202;-77
2024/03/22 00:16:20;;;;;;;23.60;21.33;;;;;;;10.51;84.13;101148.56;5032011;28;20216;-77
2024/03/22 00:18:45;;;;;;;25.80;21.90;;;;;;;10.38;84.60;101133.00;5031536;28;20205;-77
2024/03/22 00:21:13;;;;;;;20.30;18.40;;;;;;;10.56;84.99;101130.25;5032185;28;20563;-78
2024/03/22 00:23:38;;;;;;;24.03;19.87;;;;;;;10.59;85.56;101103.28;5032362;28;20279;-77
2024/03/22 00:26:05;;;;;;;28.30;22.07;;;;;;;10.69;85.04;101104.91;5023961;28;20213;-77
2024/03/22 00:28:30;;;;;;;24.60;22.07;;;;;;;10.67;85.30;101107.53;5032313;28;20662;-77
2024/03/22 00:30:57;;;;;;;27.27;22.77;;;;;;;10.72;84.93;101099.66;5031095;28;20267;-77
2024/03/22 00:33:22;;;;;;;28.40;23.50;;;;;;;10.37;84.83;101126.91;5032099;28;20256;-77
2024/03/22 00:35:48;;;;;;;30.77;24.00;;;;;;;10.55;84.77;101106.78;5023918;28;20634;-77
2024/03/22 00:38:15;;;;;;;29.90;25.80;;;;;;;10.66;84.56;101102.31;5031377;28;20260;-77
2024/03/22 00:40:41;;;;;;;32.63;25.20;;;;;;;10.66;84.57;101111.03;5022654;28;20235;-78
2024/03/22 00:43:07;;;;;;;29.77;24.03;;;;;;;10.67;84.39;101112.75;5024039;28;20274;-78
2024/03/22 00:45:33;;;;;;;30.87;24.63;;;;;;;10.66;84.73;101103.22;5016985;28;20203;-77
2024/03/22 00:47:59;;;;;;;36.97;25.40;;;;;;;10.79;84.74;101103.09;5012517;28;20642;-77
2024/03/22 00:50:25;;;;;;;36.30;26.20;;;;;;;10.86;84.05;101109.97;5020255;28;20238;-77
2024/03/22 00:52:51;;;;;;;31.20;25.90;;;;;;;10.59;84.91;101106.75;5030059;28;20733;-77
2024/03/22 00:55:19;;;;;;;38.20;28.63;;;;;;;10.56;84.91;101096.31;5031102;28;20204;-77
2024/03/22 00:57:44;;;;;;;34.10;26.50;;;;;;;10.71;85.04;101077.91;5031886;28;20212;-78
2024/03/22 01:00:12;;;;;;;31.57;26.73;;;;;;;10.79;84.83;101076.97;5031935;28;20650;-78
2024/03/22 01:02:38;;;;;;;33.47;28.03;;;;;;;10.83;84.83;101069.09;5031143;28;20225;-78
2024/03/22 01:05:05;;;;;;;41.90;28.47;;;;;;;10.62;84.98;101071.91;5020350;28;20209;-77
2024/03/22 01:07:30;;;;;;;44.63;27.53;;;;;;;10.73;84.98;101070.91;5012564;28;20261;-77
2024/03/22 01:09:57;;;;;;;35.13;28.30;;;;;;;10.74;84.81;101077.00;5021730;28;20652;-78
2024/03/22 01:12:23;;;;;;;41.83;29.37;;;;;;;10.77;84.51;101069.16;5031583;28;20260;-77
2024/03/22 01:14:50;;;;;;;40.33;27.97;;;;;;;10.80;85.13;101066.53;5031526;28;20680;-77
2024/03/22 01:17:15;;;;;;;36.87;28.40;;;;;;;10.36;86.03;101061.69;5031381;28;20205;-77
2024/03/22 01:19:42;;;;;;;39.37;29.73;;;;;;;10.62;85.63;101045.78;5023475;28;20230;-76
2024/03/22 01:22:07;;;;;;;43.53;28.97;;;;;;;10.74;85.63;101032.59;5027960;28;20223;-77
2024/03/22 01:24:33;;;;;;;41.40;30.20;;;;;;;10.75;85.21;101038.72;5011979;28;20210;-77
2024/03/22 01:26:59;;;;;;;41.83;29.57;;;;;;;10.78;84.97;101043.91;5011762;28;20214;-77
2024/03/22 01:29:27;;;;;;;35.80;27.40;;;;;;;10.87;84.41;101049.88;5012111;28;20760;-77
2024/03/22 01:31:53;;;;;;;37.90;28.50;;;;;;;10.92;85.26;101050.72;5023283;28;20237;-77
2024/03/22 01:34:19;;;;;;;38.80;27.80;;;;;;;10.83;85.39;101045.59;5026701;28;20234;-78
2024/03/22 01:36:45;;;;;;;41.13;29.63;;;;;;;10.83;85.03;101048.19;5027913;28;20209;-77
2024/03/22 01:39:14;;;;;;;39.13;28.13;;;;;;;10.90;84.28;101054.22;5023132;28;20240;-78
2024/03/22 01:41:39;;;;;;;41.13;31.30;;;;;;;10.79;84.63;101056.09;5029693;28;20563;-77
2024/03/22 01:44:05;;;;;;;36.07;29.27;;;;;;;10.76;85.03;101051.72;5031227;28;20287;-77
2024/03/22 01:46:32;;;;;;;40.87;29.83;;;;;;;10.74;84.91;101037.81;5031307;28;20605;-77
2024/03/22 01:48:59;;;;;;;45.60;30.27;;;;;;;10.93;85.40;101041.13;5031292;28;20243;-78
2024/03/22 01:51:25;;;;;;;38.30;29.37;;;;;;;10.67;85.20;101039.66;5031243;28;20256;-77
2024/03/22 01:53:53;;;;;;;41.93;29.60;;;;;;;10.90;85.06;101033.31;5031292;28;20206;-77
2024/03/22 01:56:19;;;;;;;38.73;28.53;;;;;;;10.91;85.80;101015.03;5022633;28;20206;-77
2024/03/22 01:58:46;;;;;;;39.90;28.10;;;;;;;11.01;85.15;101017.53;5023000;28;20272;-78
2024/03/22 02:01:12;;;;;;;41.10;28.83;;;;;;;11.01;84.67;101017.53;5022643;28;20294;-77
2024/03/22 02:03:39;;;;;;;39.47;29.77;;;;;;;11.06;83.90;101026.16;5030792;28;20699;-77
2024/03/22 02:06:05;;;;;;;38.67;29.87;;;;;;;11.05;84.30;101022.69;5022281;28;20213;-77
2024/03/22 02:08:31;;;;;;;41.77;29.93;;;;;;;10.91;84.57;101020.25;5025025;28;20832;-76
2024/03/22 02:10:57;;;;;;;40.03;30.50;;;;;;;10.64;85.53;101007.47;5028597;28;20207;-78
2024/03/22 02:13:23;;;;;;;40.77;29.50;;;;;;;10.90;85.21;100997.63;5030934;28;20566;-77
2024/03/22 02:15:49;;;;;;;36.67;28.23;;;;;;;10.77;85.05;100989.97;5030074;28;20263;-77
2024/03/22 02:18:15;;;;;;;43.47;29.23;;;;;;;10.93;85.23;100984.53;5023147;28;20210;-78
2024/03/22 02:20:43;;;;;;;38.70;28.97;;;;;;;10.98;84.80;100984.50;5030262;28;20239;-77
2024/03/22 02:23:08;;;;;;;43.63;30.53;;;;;;;10.89;84.85;100984.59;5030305;28;20711;-77
2024/03/22 02:25:36;;;;;;;42.90;29.97;;;;;;;10.88;84.48;100977.63;5029530;28;20232;-77
2024/03/22 02:28:01;;;;;;;45.50;30.50;;;;;;;11.04;84.25;100980.91;5030732;28;20206;-77
2024/03/22 02:30:27;;;;;;;46.00;31.00;;;;;;;10.97;84.24;100987.97;5030779;28;20229;-78
2024/03/22 02:32:53;;;;;;;44.30;31.57;;;;;;;11.03;84.10;100985.28;5030168;28;20268;-77
2024/03/22 02:35:19;;;;;;;41.93;30.20;;;;;;;11.06;83.78;100998.31;5030173;28;20204;-77
2024/03/22 02:37:44;;;;;;;38.20;29.03;;;;;;;11.10;83.80;100993.94;5022824;28;20205;-78
2024/03/22 02:40:12;;;;;;;45.37;29.53;;;;;;;11.15;83.89;100999.94;5030186;28;20240;-77
2024/03/22 02:42:39;;;;;;;46.57;30.37;;;;;;;10.96;84.04;100981.03;5029763;28;20233;-77
2024/03/22 02:45:06;;;;;;;41.60;30.23;;;;;;;11.07;83.95;100966.06;5030369;28;20223;-77
2024/03/22 02:47:32;;;;;;;40.63;30.27;;;;;;;11.12;83.33;100969.50;5030149;28;20203;-77
2024/03/22 02:49:58;;;;;;;41.13;29.83;;;;;;;11.21;83.00;100973.75;5021138;28;20241;-77
2024/03/22 02:52:24;;;;;;;43.70;30.00;;;;;;;11.14;83.32;100969.50;5029879;28;20257;-77
2024/03/22 02:54:49;;;;;;;41.37;28.07;;;;;;;11.15;83.66;100967.72;5033013;28;20213;-77
2024/03/22 02:57:16;;;;;;;37.57;28.30;;;;;;;10.82;83.94;100941.13;5033269;28;20676;-78
2024/03/22 02:59:42;;;;;;;42.53;28.77;;;;;;;10.99;84.02;100927.88;5033748;28;20225;-77
2024/03/22 03:02:09;;;;;;;39.97;28.90;;;;;;;10.73;84.76;100918.63;5033151;28;20210;-77
2024/03/22 03:04:34;;;;;;;42.47;28.70;;;;;;;10.88;83.90;100931.50;5028137;28;20267;-77
2024/03/22 03:07:00;;;;;;;38.93;28.43;;;;;;;10.96;83.67;100936.63;5013564;28;20213;-77
2024/03/22 03:09:26;;;;;;;37.23;27.87;;;;;;;10.97;83.83;100955.78;5027285;28;20222;-78
2024/03/22 03:11:52;;;;;;;40.77;27.60;;;;;;;10.99;83.76;100947.03;5033149;28;20273;-77
2024/03/22 03:14:17;;;;;;;40.93;28.13;;;;;;;11.03;83.04;100966.13;5033693;28;20664;-77
2024/03/22 03:16:45;;;;;;;35.50;26.80;;;;;;;10.98;82.74;100974.03;5033832;28;20208;-77
2024/03/22 03:19:10;;;;;;;35.77;26.53;;;;;;;11.11;82.62;100985.19;5024777;28;20233;-78
2024/03/22 03:21:37;;;;;;;38.07;27.23;;;;;;;11.02;82.46;100993.13;5033700;28;20668;-77
2024/03/22 03:24:02;;;;;;;35.80;27.30;;;;;;;11.15;82.50;100984.25;5024973;28;20334;-77
2024/03/22 03:26:28;;;;;;;37.33;27.90;;;;;;;11.26;82.21;100984.16;5019711;28;20624;-78
2024/03/22 03:28:55;;;;;;;37.27;27.43;;;;;;;11.11;82.37;100996.50;5013284;28;20280;-78
2024/03/22 03:31:22;;;;;;;37.27;25.77;;;;;;;11.21;82.57;100978.09;5020494;28;20205;-77
2024/03/22 03:33:48;;;;;;;32.63;26.17;;;;;;;11.22;82.50;100972.88;5033010;28;20205;-78
2024/03/22 03:36:15;;;;;;;33.00;25.97;;;;;;;11.32;81.88;100969.25;5024197;28;20214;-77
2024/03/22 03:38:41;;;;;;;35.07;26.27;;;;;;;11.23;81.98;100977.19;5033784;28;20637;-78
2024/03/22 03:41:07;;;;;;;32.47;25.17;;;;;;;11.04;82.17;100971.34;5032794;28;20213;-77
2024/03/22 03:43:33;;;;;;;35.30;25.30;;;;;;;10.99;82.61;100948.78;5032914;28;20229;-77
2024/03/22 03:45:59;;;;;;;38.03;26.27;;;;;;;10.99;82.91;100936.56;5032769;28;20307;-78
2024/03/22 03:48:25;;;;;;;28.13;23.97;;;;;;;11.15;82.38;100918.94;5028477;28;20253;-77
2024/03/22 03:50:54;;;;;;;33.23;24.07;;;;;;;11.18;82.27;100912.81;5028503;28;20229;-77
2024/03/22 03:53:20;;;;;;;32.70;24.07;;;;;;;11.16;82.49;100914.56;5032995;28;20216;-76
2024/03/22 03:55:46;;;;;;;30.40;23.63;;;;;;;11.00;82.29;100933.09;5025073;28;20201;-77
2024/03/22 03:58:12;;;;;;;33.53;24.20;;;;;;;10.93;82.81;100919.22;5031343;28;20254;-77
2024/03/22 04:00:38;;;;;;;29.13;22.57;;;;;;;10.90;82.99;100908.84;5032637;28;20230;-77
2024/03/22 04:03:04;;;;;;;36.10;24.70;;;;;;;11.00;82.82;100904.34;5031133;28;20233;-77
2024/03/22 04:05:30;;;;;;;31.13;22.50;;;;;;;10.99;82.81;100902.63;5032314;28;20210;-77
2024/03/22 04:07:57;;;;;;;30.37;23.90;;;;;;;11.00;83.33;100888.69;5032608;28;20212;-77
2024/03/22 04:10:23;;;;;;;29.53;24.00;;;;;;;11.04;83.01;100882.53;5024044;28;20248;-78
2024/03/22 04:12:48;;;;;;;30.60;23.30;;;;;;;10.78;82.83;100898.50;5032807;28;20204;-78
2024/03/22 04:15:15;;;;;;;30.20;23.17;;;;;;;10.89;83.68;100875.75;5032542;28;20252;-78
2024/03/22 04:17:40;;;;;;;34.40;23.47;;;;;;;10.82;84.47;100844.50;5032197;28;20723;-77
2024/03/22 04:20:08;;;;;;;30.63;23.93;;;;;;;10.83;83.83;100836.66;5032738;28;20233;-78
2024/03/22 04:22:33;;;;;;;26.87;22.27;;;;;;;10.78;83.26;100854.13;5032919;28;20217;-77
2024/03/22 04:25:01;;;;;;;32.50;22.50;;;;;;;10.79;83.47;100855.00;5024990;28;20212;-75
2024/03/22 04:27:27;;;;;;;28.07;21.33;;;;;;;10.83;84.01;100856.69;5029598;28;20207;-77
2024/03/22 04:29:53;;;;;;;28.33;22.97;;;;;;;10.80;84.00;100839.34;5029123;28;20279;-78
2024/03/22 04:32:18;;;;;;;26.27;22.13;;;;;;;10.86;84.05;100834.03;5032294;28;20290;-77
2024/03/22 04:34:45;;;;;;;25.80;22.27;;;;;;;10.94;83.85;100826.06;5033120;28;20233;-77
2024/03/22 04:37:12;;;;;;;27.27;22.00;;;;;;;10.82;84.63;100798.38;5033799;28;20208;-77
2024/03/22 04:39:38;;;;;;;28.63;21.37;;;;;;;10.86;84.31;100797.47;5028039;28;20319;-77
2024/03/22 04:42:06;;;;;;;29.20;22.00;;;;;;;10.80;84.15;100800.16;5031420;28;20260;-78
2024/03/22 04:44:33;;;;;;;26.50;21.57;;;;;;;10.71;84.06;100806.34;5032269;28;20723;-78
2024/03/22 04:46:59;;;;;;;31.07;22.60;;;;;;;10.91;84.27;100785.19;5023874;28;20581;-77
2024/03/22 04:49:25;;;;;;;25.47;20.87;;;;;;;10.88;84.29;100792.19;5023506;28;20244;-77
2024/03/22 04:51:51;;;;;;;26.77;21.57;;;;;;;10.99;83.61;100789.44;5032232;28;20731;-78
2024/03/22 04:54:16;;;;;;;24.23;20.33;;;;;;;10.98;83.53;100790.31;5032626;28;20252;-77
2024/03/22 04:56:43;;;;;;;24.40;21.83;;;;;;;11.06;83.30;100791.94;5024137;28;20214;-77
2024/03/22 04:59:09;;;;;;;27.43;22.10;;;;;;;10.95;83.19;100819.09;5031594;28;20273;-77
2024/03/22 05:01:36;;;;;;;24.20;21.03;;;;;;;10.96;83.51;100799.91;5031211;28;20691;-78
2024/03/22 05:04:01;;;;;;;27.80;21.70;;;;;;;10.89;83.99;100797.41;5023995;28;20228;-77
2024/03/22 05:06:27;;;;;;;31.30;21.93;;;;;;;11.01;83.82;100791.13;5031936;28;20212;-78
2024/03/22 05:08:53;;;;;;;28.93;20.97;;;;;;;11.03;83.62;100780.66;5032020;28;20724;-78
2024/03/22 05:11:19;;;;;;;24.87;21.00;;;;;;;11.12;83.14;100780.53;5030969;28;20278;-77
2024/03/22 05:13:45;;;;;;;32.97;22.63;;;;;;;11.03;83.29;100794.59;5025477;28;20211;-78
2024/03/22 05:16:14;;;;;;;24.47;20.33;;;;;;;10.98;84.06;100782.47;5028321;28;20258;-78
2024/03/22 05:18:39;;;;;;;27.03;21.00;;;;;;;11.09;83.93;100767.50;5031181;28;20698;-78
2024/03/22 05:21:06;;;;;;;29.07;22.40;;;;;;;11.03;84.02;100775.44;5030698;28;20241;-77
2024/03/22 05:23:31;;;;;;;28.43;21.80;;;;;;;11.06;83.93;100757.97;5022917;28;20694;-78
2024/03/22 05:25:59;;;;;;;27.10;21.70;;;;;;;11.10;84.27;100758.78;5015190;28;20202;-77
2024/03/22 05:28:25;;;;;;;29.50;22.47;;;;;;;11.05;85.28;100743.16;5023141;28;20209;-77
2024/03/22 05:30:51;;;;;;;29.90;21.97;;;;;;;11.17;84.59;100741.25;5031617;28;20234;-78
2024/03/22 05:33:18;;;;;;;32.10;21.70;;;;;;;11.11;84.98;100737.00;5023400;28;20218;-78
2024/03/22 05:35:44;;;;;;;30.67;22.60;;;;;;;11.12;85.10;100736.13;5031804;28;20209;-77
2024/03/22 05:38:09;;;;;;;29.70;23.30;;;;;;;11.09;85.43;100730.94;5023237;28;20256;-78
2024/03/22 05:40:38;;;;;;;27.30;21.10;;;;;;;11.07;85.47;100715.28;5023238;28;20228;-77
2024/03/22 05:43:04;;;;;;;29.17;22.77;;;;;;;11.26;85.00;100722.81;5031045;28;20240;-78
2024/03/22 05:45:30;;;;;;;31.13;22.40;;;;;;;11.29;85.13;100731.44;5031486;28;20649;-77
2024/03/22 05:47:56;;;;;;;28.53;22.20;;;;;;;10.99;85.32;100722.38;5030908;28;20259;-77
2024/03/22 05:50:23;;;;;;;32.17;22.60;;;;;;;11.19;85.78;100708.13;5027799;28;20241;-77
2024/03/22 05:52:49;;;;;;;24.30;20.33;;;;;;;11.25;85.43;100703.66;5025400;28;20206;-77
2024/03/22 05:55:15;;;;;;;27.60;21.33;;;;;;;11.32;84.72;100713.13;5030092;28;20216;-77
2024/03/22 05:57:40;;;;;;;29.20;21.80;;;;;;;11.25;85.27;100718.47;5031116;28;20270;-77
2024/03/22 06:00:08;;;;;;;28.20;21.20;;;;;;;11.31;85.24;100703.53;5031061;28;20224;-77
2024/03/22 06:02:33;;;;;;;32.03;22.63;;;;;;;11.32;85.55;100684.38;5026847;28;20208;-78
2024/03/22 06:05:00;;;;;;;29.13;21.77;;;;;;;11.23;85.24;100696.72;5017805;28;20649;-77
2024/03/22 06:07:27;;;;;;;27.43;21.37;;;;;;;11.26;85.60;100688.84;5030623;28;20220;-78
2024/03/22 06:09:53;;;;;;;27.47;21.60;;;;;;;11.18;85.72;100685.50;5030734;28;20237;-77
2024/03/22 06:12:18;;;;;;;25.30;20.70;;;;;;;11.25;85.83;100674.91;5029409;28;20263;-78
2024/03/22 06:14:46;;;;;;;29.03;21.20;;;;;;;11.25;85.65;100667.06;5031065;28;20209;-77
2024/03/22 06:17:12;;;;;;;26.80;20.73;;;;;;;11.28;86.10;100661.78;5021894;28;20627;-78
2024/03/22 06:19:39;;;;;;;28.87;21.67;;;;;;;11.29;86.50;100652.19;5026868;28;20229;-78
2024/03/22 06:22:04;;;;;;;25.70;20.90;;;;;;;11.31;86.17;100653.88;5018891;28;20214;-78
2024/03/22 06:24:33;;;;;;;31.67;21.27;;;;;;;11.23;85.73;100681.06;5022116;28;20273;-78
2024/03/22 06:26:58;;;;;;;28.87;21.77;;;;;;;11.28;85.69;100663.56;5023378;28;20221;-77
2024/03/22 06:29:24;;;;;;;29.87;21.27;;;;;;;11.40;86.00;100662.47;5032238;28;20225;-78
2024/03/22 06:31:50;;;;;;;22.47;20.07;;;;;;;11.34;84.90;100673.88;5027255;28;20213;-77
2024/03/22 06:34:16;;;;;;;24.67;20.40;;;;;;;11.29;85.43;100666.13;5018064;28;20233;-77
2024/03/22 06:36:42;;;;;;;23.90;19.57;;;;;;;11.43;85.32;100665.00;5033929;28;20206;-77
2024/03/22 06:39:10;;;;;;;22.63;19.20;;;;;;;11.35;86.33;100672.13;5033569;28;20780;-76
2024/03/22 06:41:37;;;;;;;23.57;19.30;;;;;;;11.27;86.94;100653.97;5034012;28;20665;-77
2024/03/22 06:44:03;;;;;;;29.67;21.60;;;;;;;11.24;86.49;100660.13;5033962;28;20226;-77
2024/03/22 06:46:29;;;;;;;29.60;21.40;;;;;;;11.29;86.55;100633.91;5033820;28;20264;-78
2024/03/22 06:48:55;;;;;;;24.67;18.90;;;;;;;11.43;87.99;100610.13;5033347;28;20240;-77
2024/03/22 06:51:20;;;;;;;24.83;19.77;;;;;;;11.48;85.52;100634.44;5026048;28;20297;-77
2024/03/22 06:53:47;;;;;;;24.87;20.00;;;;;;;11.48;85.87;100637.03;5032721;28;20286;-77
2024/03/22 06:56:13;;;;;;;21.20;18.90;;;;;;;11.28;85.73;100651.34;5032887;28;20699;-78
2024/03/22 06:58:40;;;;;;;23.77;20.70;;;;;;;11.52;86.07;100636.94;5025425;28;20206;-78
2024/03/22 07:01:06;;;;;;;28.10;19.37;;;;;;;11.59;85.59;100645.50;5025297;28;20213;-78
2024/03/22 07:03:33;;;;;;;21.50;18.30;;;;;;;11.59;84.82;100670.81;5021979;28;20220;-78
2024/03/22 07:05:58;;;;;;;22.67;19.20;;;;;;;11.56;84.25;100683.94;5028811;28;20216;-78
2024/03/22 07:08:25;;;;;;;22.33;19.37;;;;;;;11.73;84.24;100681.84;5033761;28;20209;-77
2024/03/22 07:10:50;;;;;;;21.77;18.90;;;;;;;11.61;83.14;100700.41;5032350;28;20228;-77
2024/03/22 07:13:17;;;;;;;23.83;19.90;;;;;;;11.61;82.92;100716.09;5033544;28;20629;-78
2024/03/22 07:15:45;;;;;;;25.87;19.00;;;;;;;11.73;83.05;100726.31;5033779;28;20252;-77
2024/03/22 07:18:11;;;;;;;20.20;18.10;;;;;;;11.61;83.93;100723.94;5033801;28;20664;-77
2024/03/22 07:20:37;;;;;;;22.63;19.30;;;;;;;11.70;83.08;100727.22;5032853;28;20275;-77
2024/03/22 07:23:04;;;;;;;24.17;18.30;;;;;;;11.87;84.09;100710.34;5034907;28;20210;-78
2024/03/22 07:25:29;;;;;;;22.73;19.10;;;;;;;11.99;86.06;100683.09;5036016;28;20262;-77
2024/03/22 07:27:56;;;;;;;23.73;18.70;;;;;;;12.04;83.98;100682.13;5033746;28;20214;-78
2024/03/22 07:30:21;;;;;;;23.70;18.63;;;;;;;12.02;82.77;100715.31;5031746;28;20264;-77
2024/03/22 07:32:49;;;;;;;22.40;18.23;;;;;;;11.97;81.80;100714.56;5028609;28;20214;-77
2024/03/22 07:35:14;;;;;;;21.53;18.27;;;;;;;12.05;81.46;100724.84;5017283;28;20231;-75
2024/03/22 07:37:41;;;;;;;20.03;17.70;;;;;;;12.00;81.52;100734.56;5030357;28;20209;-78
2024/03/22 07:40:07;;;;;;;22.07;18.17;;;;;;;12.16;81.67;100730.72;5020212;28;20652;-78
2024/03/22 07:42:33;;;;;;;25.67;17.77;;;;;;;12.27;81.68;100733.97;5031042;28;20210;-78
2024/03/22 07:44:59;;;;;;;20.93;17.87;;;;;;;12.40;81.68;100731.94;5027777;28;20232;-78
2024/03/22 07:47:25;;;;;;;21.87;18.53;;;;;;;12.38;80.57;100738.97;5032522;28;20208;-78
2024/03/22 07:49:52;;;;;;;23.70;17.73;;;;;;;12.52;80.28;100743.91;5020675;28;20238;-77
2024/03/22 07:52:18;;;;;;;21.10;18.90;;;;;;;12.51;79.80;100760.53;5013727;28;20245;-77
2024/03/22 07:54:43;;;;;;;23.10;17.70;;;;;;;12.33;81.04;100764.41;5014342;28;20213;-78
2024/03/22 07:57:10;;;;;;;28.80;17.87;;;;;;;12.46;80.83;100752.75;5013440;28;20210;-78
2024/03/22 07:59:36;;;;;;;20.60;18.00;;;;;;;12.54;81.11;100742.13;5030505;28;20259;-78
2024/03/22 08:02:03;;;;;;;19.23;17.23;;;;;;;12.70;80.96;100735.66;5016483;28;20267;-78
2024/03/22 08:04:28;;;;;;;19.87;17.60;;;;;;;12.69;80.58;100720.81;5024529;28;20229;-78
2024/03/22 08:06:57;;;;;;;19.63;17.33;;;;;;;12.90;80.71;100727.34;5033884;28;20210;-78
2024/03/22 08:09:22;;;;;;;22.40;16.70;;;;;;;12.92;79.88;100740.38;5034503;28;20225;-78
2024/03/22 08:11:48;;;;;;;21.27;17.40;;;;;;;12.99;80.15;100749.81;5032496;28;20224;-77
2024/03/22 08:14:14;;;;;;;18.23;16.53;;;;;;;12.75;80.27;100753.88;5034030;28;20210;-78
2024/03/22 08:16:40;;;;;;;19.13;16.23;;;;;;;12.94;80.25;100745.59;5029701;28;20540;-77
2024/03/22 08:19:05;;;;;;;17.70;16.00;;;;;;;13.04;80.16;100741.84;5027620;28;20226;-76
2024/03/22 08:21:32;;;;;;;17.83;16.13;;;;;;;12.98;80.91;100732.34;5033462;28;20209;-77
2024/03/22 08:23:58;;;;;;;17.13;15.43;;;;;;;12.80;80.28;100746.75;5033177;28;20282;-77
2024/03/22 08:26:25;;;;;;;17.90;16.20;;;;;;;12.74;80.27;100759.16;5031850;28;20213;-78
2024/03/22 08:28:50;;;;;;;19.10;16.63;;;;;;;12.68;80.36;100747.03;5027892;28;20206;-78
2024/03/22 08:31:17;;;;;;;18.53;16.67;;;;;;;12.77;80.84;100718.03;5028442;28;20258;-77
2024/03/22 08:33:42;;;;;;;17.57;15.97;;;;;;;12.81;80.92;100716.22;5029117;28;20205;-78
2024/03/22 08:36:09;;;;;;;17.27;15.60;;;;;;;12.80;80.83;100699.59;5013187;28;20610;-78
2024/03/22 08:38:34;;;;;;;19.63;16.77;;;;;;;12.94;80.61;100707.13;5013111;28;20433;-77
2024/03/22 08:41:03;;;;;;;19.63;16.03;;;;;;;12.95;79.98;100715.88;5012693;28;20726;-78
2024/03/22 08:43:29;;;;;;;17.90;14.87;;;;;;;12.83;79.68;100728.38;5011493;28;20702;-77
2024/03/22 08:45:55;;;;;;;18.50;15.43;;;;;;;12.84;80.42;100717.00;5013704;28;20208;-77
2024/03/22 08:48:21;;;;;;;18.53;15.83;;;;;;;12.81;79.74;100721.44;5012780;28;20268;-78
2024/03/22 08:50:47;;;;;;;16.30;14.60;;;;;;;12.96;79.93;100717.59;5032203;28;20232;-78
2024/03/22 08:53:12;;;;;;;16.97;15.17;;;;;;;13.06;79.84;100717.34;5032061;28;20606;-77
2024/03/22 08:55:39;;;;;;;16.73;15.03;;;;;;;13.11;79.35;100714.59;5031879;28;20251;-78
2024/03/22 08:58:05;;;;;;;16.27;14.67;;;;;;;13.20;79.65;100717.00;5032500;28;20266;-78
2024/03/22 09:00:32;;;;;;;16.50;14.90;;;;;;;13.27;79.48;100715.91;5032163;28;20235;-78
2024/03/22 09:02:57;;;;;;;18.07;15.33;;;;;;;13.24;78.96;100729.13;5027325;28;20206;-78
2024/03/22 09:05:23;;;;;;;16.57;14.80;;;;;;;13.39;78.55;100730.50;5029346;28;20226;-78
2024/03/22 09:07:50;;;;;;;17.00;15.20;;;;;;;13.29;78.50;100731.63;5027509;28;20207;-77
2024/03/22 09:10:16;;;;;;;18.07;14.90;;;;;;;13.46;79.02;100718.13;5028372;28;20221;-77
2024/03/22 09:12:42;;;;;;;16.57;14.97;;;;;;;13.57;78.56;100726.53;5030001;28;20476;-78
2024/03/22 09:15:10;;;;;;;16.73;14.30;;;;;;;13.61;78.37;100719.44;5032095;28;20255;-78
2024/03/22 09:17:35;;;;;;;16.63;14.80;;;;;;;13.68;78.30;100721.88;5031705;28;20213;-77
2024/03/22 09:20:03;;;;;;;16.87;15.10;;;;;;;13.66;77.88;100726.31;5031946;28;20230;-78
2024/03/22 09:22:29;;;;;;;21.53;16.47;;;;;;;13.69;77.58;100725.34;5031933;28;20289;-78
2024/03/22 09:24:56;;;;;;;16.63;14.43;;;;;;;13.60;77.93;100743.97;5027553;28;20665;-78
2024/03/22 09:27:21;;;;;;;17.63;14.97;;;;;;;13.62;77.60;100744.78;4335859;28;10000741;-77
2024/03/22 09:29:50;;;;;;;20.73;16.37;;;;;;;13.47;77.08;100746.03;5011972;28;20221;-78
2024/03/22 09:32:16;;;;;;;16.03;14.53;;;;;;;13.51;77.82;100735.44;5030254;28;20208;-78
2024/03/22 09:34:42;;;;;;;18.20;14.60;;;;;;;13.54;77.64;100729.25;5020506;28;20986;-78
2024/03/22 09:37:08;;;;;;;16.60;15.10;;;;;;;13.46;77.43;100741.72;5015372;28;20221;-78
2024/03/22 09:39:35;;;;;;;16.77;14.80;;;;;;;13.35;76.19;100744.59;5020552;28;20226;-78
2024/03/22 09:42:05;;;;;;;14.33;13.03;;;;;;;13.32;76.90;100765.66;5028623;28;20232;-79
2024/03/22 09:44:33;;;;;;;15.43;14.00;;;;;;;13.31;77.63;100745.56;5030255;28;20634;-78
2024/03/22 09:46:59;;;;;;;15.53;13.97;;;;;;;13.29;76.71;100739.47;5029251;28;20260;-78
2024/03/22 09:49:27;;;;;;;16.67;15.07;;;;;;;13.37;77.70;100728.84;5028810;28;20965;-78
2024/03/22 09:51:52;;;;;;;15.80;14.30;;;;;;;13.25;76.76;100736.06;5027544;28;20201;-77
2024/03/22 09:54:19;;;;;;;15.87;14.37;;;;;;;13.23;76.20;100734.41;5025992;28;20202;-78
2024/03/22 09:56:47;;;;;;;15.27;13.73;;;;;;;13.06;76.96;100740.03;5028385;28;20267;-78
2024/03/22 09:59:14;;;;;;;15.17;13.67;;;;;;;13.27;76.78;100749.16;5020450;28;20222;-78
2024/03/22 10:01:40;;;;;;;15.83;14.30;;;;;;;13.28;77.71;100733.38;5027971;28;20212;-78
2024/03/22 10:04:06;;;;;;;14.77;13.00;;;;;;;13.26;75.86;100734.31;5027236;28;20236;-77
2024/03/22 10:06:33;;;;;;;14.30;12.87;;;;;;;13.14;75.45;100763.44;5034207;28;20210;-78
2024/03/22 10:08:59;;;;;;;14.97;13.47;;;;;;;13.36;75.36;100769.03;5033453;28;20316;-79
2024/03/22 10:11:26;;;;;;;16.10;13.00;;;;;;;13.52;76.34;100762.53;5025893;28;20207;-79
2024/03/22 10:13:52;;;;;;;14.37;13.17;;;;;;;13.44;75.58;100757.47;5025927;28;20205;-78
2024/03/22 10:16:18;;;;;;;14.43;12.93;;;;;;;13.28;75.68;100785.81;5034815;28;20217;-78
2024/03/22 10:18:45;;;;;;;12.97;11.77;;;;;;;13.14;73.87;100797.53;5032991;28;20268;-78
2024/03/22 10:21:10;;;;;;;12.73;11.53;;;;;;;13.41;74.85;100809.13;5033538;28;20209;-79
2024/03/22 10:23:38;;;;;;;13.37;12.07;;;;;;;13.56;75.40;100798.28;5033467;28;20264;-78
2024/03/22 10:26:04;;;;;;;11.67;10.57;;;;;;;13.48;72.44;100829.94;5028149;28;20218;-78
2024/03/22 10:28:30;;;;;;;13.50;10.80;;;;;;;13.56;73.20;100836.72;5031682;28;20208;-78
2024/03/22 10:30:55;;;;;;;10.93;9.83;;;;;;;13.54;70.75;100867.38;5034196;28;20711;-79
2024/03/22 10:33:23;;;;;;;10.67;9.70;;;;;;;13.51;70.39;100900.66;5022810;28;20211;-79
2024/03/22 10:35:51;;;;;;;10.77;9.10;;;;;;;13.48;69.53;100932.22;5034059;28;20779;-78
2024/03/22 10:38:19;;;;;;;10.30;9.40;;;;;;;13.63;68.46;100958.97;5033644;28;20209;-79
2024/03/22 10:40:47;;;;;;;9.63;8.67;;;;;;;13.78;69.09;100971.75;5025523;28;20229;-78
2024/03/22 10:43:13;;;;;;;8.73;8.00;;;;;;;13.52;65.38;101011.69;5035585;28;20217;-79
2024/03/22 10:45:40;;;;;;;9.00;8.10;;;;;;;13.67;66.49;101042.81;5034212;28;20262;-78
2024/03/22 10:48:10;;;;;;;8.40;7.60;;;;;;;13.64;64.62;101084.03;5035842;28;20217;-78
2024/03/22 10:50:39;;;;;;;8.67;7.97;;;;;;;13.81;67.54;101063.50;5033216;28;20228;-78
2024/03/22 10:53:08;;;;;;;8.23;7.53;;;;;;;13.74;66.80;101054.06;5035894;28;20220;-78
2024/03/22 10:55:37;;;;;;;10.87;8.07;;;;;;;13.69;69.36;101045.41;5035881;28;20214;-78
2024/03/22 10:58:05;;;;;;;9.10;8.20;;;;;;;13.73;73.37;100952.63;5031674;28;20206;-76
2024/03/22 11:00:32;;;;;;;9.37;8.27;;;;;;;13.63;76.32;100854.91;5031355;28;20233;-76
2024/03/22 11:02:59;;;;;;;10.10;9.03;;;;;;;12.99;79.68;100747.19;5024591;28;20632;-78
2024/03/22 11:05:26;;;;;;;9.63;8.60;;;;;;;12.67;82.68;100661.53;5016313;28;20231;-77